createdAt,value
2018-04-17T00:00:40.115Z,982.56
2018-04-17T00:01:40.038Z,982.56
2018-04-17T00:02:39.961Z,982.57
2018-04-17T00:03:39.881Z,982.62
2018-04-17T00:04:39.800Z,982.57
2018-04-17T00:05:39.724Z,982.63
2018-04-17T00:06:39.664Z,982.64
2018-04-17T00:07:39.575Z,982.64
2018-04-17T00:08:39.489Z,982.64
2018-04-17T00:09:39.411Z,982.68
2018-04-17T00:10:39.332Z,982.67
2018-04-17T00:11:39.256Z,982.67
2018-04-17T00:12:39.182Z,982.67
2018-04-17T00:13:39.098Z,982.71
2018-04-17T00:14:39.020Z,982.71
2018-04-17T00:15:38.956Z,982.70
2018-04-17T00:16:38.866Z,982.71
2018-04-17T00:17:38.789Z,982.71
2018-04-17T00:18:38.711Z,982.71
2018-04-17T00:19:38.630Z,982.70
2018-04-17T00:20:38.551Z,982.69
2018-04-17T00:21:38.470Z,982.74
2018-04-17T00:22:38.397Z,982.68
2018-04-17T00:23:38.333Z,982.67
2018-04-17T00:24:38.240Z,982.64
2018-04-17T00:25:38.159Z,982.69
2018-04-17T00:26:38.081Z,982.70
2018-04-17T00:27:38.004Z,982.71
2018-04-17T00:28:37.922Z,982.70
2018-04-17T00:29:37.849Z,982.71
2018-04-17T00:30:37.768Z,982.73
2018-04-17T00:31:37.691Z,982.73
2018-04-17T00:32:37.634Z,982.75
2018-04-17T00:33:37.532Z,982.72
2018-04-17T00:34:37.453Z,982.73
2018-04-17T00:35:37.375Z,982.72
2018-04-17T00:36:37.313Z,982.73
2018-04-17T00:37:37.219Z,982.74
2018-04-17T00:38:37.160Z,982.74
2018-04-17T00:39:37.064Z,982.74
2018-04-17T00:40:36.984Z,982.75
2018-04-17T00:41:36.904Z,982.78
2018-04-17T00:42:36.835Z,982.79
2018-04-17T00:43:36.750Z,982.74
2018-04-17T00:44:36.671Z,982.74
2018-04-17T00:45:36.594Z,982.77
2018-04-17T00:46:36.515Z,982.75
2018-04-17T00:47:36.442Z,982.73
2018-04-17T00:48:36.359Z,982.74
2018-04-17T00:49:36.282Z,982.76
2018-04-17T00:50:36.209Z,982.77
2018-04-17T00:51:36.125Z,982.74
2018-04-17T00:52:36.046Z,982.80
2018-04-17T00:53:35.967Z,982.83
2018-04-17T00:54:35.899Z,982.84
2018-04-17T00:55:35.814Z,982.87
2018-04-17T00:56:35.738Z,982.87
2018-04-17T00:57:35.653Z,982.87
2018-04-17T00:58:35.577Z,982.88
2018-04-17T00:59:35.514Z,982.89
2018-04-17T01:00:35.421Z,982.92
2018-04-17T01:01:35.341Z,982.92
2018-04-17T01:02:35.264Z,982.92
2018-04-17T01:03:35.187Z,982.88
2018-04-17T01:04:35.106Z,982.96
2018-04-17T01:05:35.029Z,982.94
2018-04-17T01:06:34.950Z,982.92
2018-04-17T01:07:34.878Z,982.93
2018-04-17T01:08:34.792Z,982.94
2018-04-17T01:09:34.716Z,982.96
2018-04-17T01:10:34.641Z,982.94
2018-04-17T01:11:34.557Z,982.96
2018-04-17T01:12:34.479Z,982.93
2018-04-17T01:13:34.403Z,982.94
2018-04-17T01:14:34.322Z,982.96
2018-04-17T01:15:34.244Z,982.94
2018-04-17T01:16:34.169Z,982.93
2018-04-17T01:17:34.083Z,982.93
2018-04-17T01:18:34.070Z,982.91
2018-04-17T01:19:33.938Z,982.98
2018-04-17T01:20:33.847Z,982.93
2018-04-17T01:21:33.767Z,982.97
2018-04-17T01:22:33.710Z,982.98
2018-04-17T01:23:33.615Z,982.94
2018-04-17T01:24:33.531Z,982.96
2018-04-17T01:25:33.452Z,982.97
2018-04-17T01:26:33.380Z,982.94
2018-04-17T01:27:33.295Z,982.97
2018-04-17T01:28:33.222Z,982.96
2018-04-17T01:29:33.143Z,983.00
2018-04-17T01:30:33.075Z,982.99
2018-04-17T01:31:32.988Z,982.95
2018-04-17T01:32:32.920Z,982.98
2018-04-17T01:33:32.825Z,983.02
2018-04-17T01:34:32.762Z,983.01
2018-04-17T01:35:32.670Z,983.03
2018-04-17T01:36:32.594Z,983.00
2018-04-17T01:37:32.510Z,983.05
2018-04-17T01:38:32.436Z,983.04
2018-04-17T01:39:32.354Z,983.05
2018-04-17T01:40:32.274Z,983.04
2018-04-17T01:41:32.201Z,983.03
2018-04-17T01:42:32.123Z,983.04
2018-04-17T01:43:32.039Z,983.02
2018-04-17T01:44:31.962Z,983.08
2018-04-17T01:45:31.895Z,983.08
2018-04-17T01:46:31.803Z,983.13
2018-04-17T01:47:31.724Z,983.09
2018-04-17T01:48:31.644Z,983.08
2018-04-17T01:49:31.565Z,983.13
2018-04-17T01:50:31.490Z,983.10
2018-04-17T01:51:31.409Z,983.13
2018-04-17T01:52:31.330Z,983.13
2018-04-17T01:53:31.261Z,983.10
2018-04-17T01:54:31.175Z,983.11
2018-04-17T01:55:31.098Z,983.14
2018-04-17T01:56:31.018Z,983.14
2018-04-17T01:57:30.937Z,983.14
2018-04-17T01:58:30.907Z,983.12
2018-04-17T01:59:30.784Z,983.15
2018-04-17T02:00:30.701Z,983.15
2018-04-17T02:01:30.630Z,983.17
2018-04-17T02:02:30.551Z,983.14
2018-04-17T02:03:30.471Z,983.18
2018-04-17T02:04:30.387Z,983.22
2018-04-17T02:05:30.311Z,983.19
2018-04-17T02:06:30.233Z,983.15
2018-04-17T02:07:30.157Z,983.17
2018-04-17T02:08:30.088Z,983.18
2018-04-17T02:09:30.026Z,983.23
2018-04-17T02:10:29.922Z,983.22
2018-04-17T02:11:29.842Z,983.24
2018-04-17T02:12:29.758Z,983.23
2018-04-17T02:13:29.683Z,983.25
2018-04-17T02:14:29.602Z,983.27
2018-04-17T02:15:29.526Z,983.25
2018-04-17T02:16:29.447Z,983.22
2018-04-17T02:17:29.367Z,983.24
2018-04-17T02:18:29.287Z,983.24
2018-04-17T02:19:29.210Z,983.26
2018-04-17T02:20:29.130Z,983.21
2018-04-17T02:21:29.057Z,983.22
2018-04-17T02:22:28.975Z,983.24
2018-04-17T02:23:28.898Z,983.28
2018-04-17T02:24:28.829Z,983.28
2018-04-17T02:25:28.746Z,983.28
2018-04-17T02:26:28.679Z,983.31
2018-04-17T02:27:28.623Z,983.31
2018-04-17T02:28:28.500Z,983.37
2018-04-17T02:29:28.423Z,983.36
2018-04-17T02:30:28.354Z,983.34
2018-04-17T02:31:28.269Z,983.33
2018-04-17T02:32:28.188Z,983.38
2018-04-17T02:33:28.113Z,983.37
2018-04-17T02:34:28.030Z,983.39
2018-04-17T02:35:27.955Z,983.36
2018-04-17T02:36:27.872Z,983.40
2018-04-17T02:37:27.809Z,983.39
2018-04-17T02:38:27.715Z,983.39
2018-04-17T02:39:27.652Z,983.40
2018-04-17T02:40:27.559Z,983.41
2018-04-17T02:41:27.491Z,983.45
2018-04-17T02:42:27.431Z,983.47
2018-04-17T02:43:27.321Z,983.51
2018-04-17T02:44:27.249Z,983.48
2018-04-17T02:45:27.165Z,983.56
2018-04-17T02:46:27.086Z,983.58
2018-04-17T02:47:27.007Z,983.62
2018-04-17T02:48:26.929Z,983.63
2018-04-17T02:49:26.859Z,983.66
2018-04-17T02:50:26.771Z,983.69
2018-04-17T02:51:26.700Z,983.74
2018-04-17T02:52:26.612Z,983.71
2018-04-17T02:53:26.533Z,983.69
2018-04-17T02:54:26.456Z,983.69
2018-04-17T02:55:26.374Z,983.73
2018-04-17T02:56:26.297Z,983.72
2018-04-17T02:57:26.225Z,983.69
2018-04-17T02:58:26.136Z,983.68
2018-04-17T02:59:26.092Z,983.69
2018-04-17T03:00:25.978Z,983.72
2018-04-17T03:01:25.903Z,983.75
2018-04-17T03:02:25.820Z,983.73
2018-04-17T03:03:25.740Z,983.76
2018-04-17T03:04:25.661Z,983.77
2018-04-17T03:05:25.588Z,983.76
2018-04-17T03:06:25.504Z,983.78
2018-04-17T03:07:25.425Z,983.81
2018-04-17T03:08:25.345Z,983.83
2018-04-17T03:09:25.269Z,983.82
2018-04-17T03:10:25.197Z,983.90
2018-04-17T03:11:25.108Z,983.91
2018-04-17T03:12:25.028Z,983.95
2018-04-17T03:13:24.961Z,983.99
2018-04-17T03:14:24.873Z,984.01
2018-04-17T03:15:24.794Z,984.01
2018-04-17T03:16:24.745Z,984.04
2018-04-17T03:17:24.636Z,984.04
2018-04-17T03:18:24.556Z,984.02
2018-04-17T03:19:24.475Z,984.04
2018-04-17T03:20:24.396Z,984.03
2018-04-17T03:21:24.322Z,984.02
2018-04-17T03:22:24.244Z,983.97
2018-04-17T03:23:24.161Z,984.02
2018-04-17T03:24:24.081Z,983.99
2018-04-17T03:25:24.058Z,984.01
2018-04-17T03:26:23.927Z,984.01
2018-04-17T03:27:23.848Z,983.99
2018-04-17T03:28:23.765Z,984.04
2018-04-17T03:29:23.689Z,984.05
2018-04-17T03:30:23.608Z,984.04
2018-04-17T03:31:23.531Z,984.04
2018-04-17T03:32:23.450Z,984.01
2018-04-17T03:33:23.378Z,984.05
2018-04-17T03:34:23.291Z,984.03
2018-04-17T03:35:23.212Z,984.05
2018-04-17T03:36:23.134Z,984.06
2018-04-17T03:37:23.064Z,984.05
2018-04-17T03:38:22.973Z,984.06
2018-04-17T03:39:22.897Z,984.05
2018-04-17T03:40:22.829Z,984.08
2018-04-17T03:41:22.753Z,984.12
2018-04-17T03:42:22.661Z,984.06
2018-04-17T03:43:22.580Z,984.07
2018-04-17T03:44:22.513Z,984.09
2018-04-17T03:45:22.425Z,984.09
2018-04-17T03:46:22.341Z,984.09
2018-04-17T03:47:22.266Z,984.09
2018-04-17T03:48:22.186Z,984.08
2018-04-17T03:49:22.106Z,984.11
2018-04-17T03:50:22.027Z,984.14
2018-04-17T03:51:21.950Z,984.16
2018-04-17T03:52:21.866Z,984.17
2018-04-17T03:53:21.788Z,984.17
2018-04-17T03:54:21.709Z,984.16
2018-04-17T03:55:21.636Z,984.22
2018-04-17T03:56:21.552Z,984.26
2018-04-17T03:57:21.478Z,984.25
2018-04-17T03:58:21.395Z,984.23
2018-04-17T03:59:21.316Z,984.27
2018-04-17T04:00:21.246Z,984.26
2018-04-17T04:01:21.156Z,984.27
2018-04-17T04:02:21.081Z,984.29
2018-04-17T04:03:21.001Z,984.28
2018-04-17T04:04:20.920Z,984.26
2018-04-17T04:05:20.844Z,984.27
2018-04-17T04:06:20.763Z,984.24
2018-04-17T04:07:20.700Z,984.28
2018-04-17T04:08:20.605Z,984.26
2018-04-17T04:09:20.528Z,984.27
2018-04-17T04:10:20.451Z,984.27
2018-04-17T04:11:20.387Z,984.27
2018-04-17T04:12:20.290Z,984.33
2018-04-17T04:13:20.231Z,984.34
2018-04-17T04:14:20.134Z,984.33
2018-04-17T04:15:20.057Z,984.33
2018-04-17T04:16:19.976Z,984.36
2018-04-17T04:17:19.893Z,984.37
2018-04-17T04:18:19.815Z,984.37
2018-04-17T04:19:19.744Z,984.37
2018-04-17T04:20:19.658Z,984.40
2018-04-17T04:21:19.583Z,984.38
2018-04-17T04:22:19.501Z,984.40
2018-04-17T04:23:19.421Z,984.38
2018-04-17T04:24:19.344Z,984.41
2018-04-17T04:25:19.261Z,984.41
2018-04-17T04:26:19.186Z,984.43
2018-04-17T04:27:19.108Z,984.43
2018-04-17T04:28:19.028Z,984.39
2018-04-17T04:29:18.945Z,984.43
2018-04-17T04:30:18.881Z,984.44
2018-04-17T04:31:18.790Z,984.49
2018-04-17T04:32:18.711Z,984.52
2018-04-17T04:33:18.643Z,984.55
2018-04-17T04:34:18.553Z,984.59
2018-04-17T04:35:18.474Z,984.60
2018-04-17T04:36:18.395Z,984.60
2018-04-17T04:37:18.317Z,984.64
2018-04-17T04:38:18.234Z,984.65
2018-04-17T04:39:18.159Z,984.69
2018-04-17T04:40:18.078Z,984.72
2018-04-17T04:41:18.001Z,984.72
2018-04-17T04:42:17.921Z,984.74
2018-04-17T04:43:17.843Z,984.77
2018-04-17T04:44:17.773Z,984.81
2018-04-17T04:45:17.694Z,984.83
2018-04-17T04:46:17.622Z,984.83
2018-04-17T04:47:17.528Z,984.83
2018-04-17T04:48:17.447Z,984.84
2018-04-17T04:49:17.374Z,984.78
2018-04-17T04:50:17.292Z,984.79
2018-04-17T04:51:17.214Z,984.77
2018-04-17T04:52:17.133Z,984.79
2018-04-17T04:53:17.083Z,984.80
2018-04-17T04:54:16.979Z,984.80
2018-04-17T04:55:17.016Z,984.78
2018-04-17T04:56:16.857Z,984.79
2018-04-17T04:57:16.740Z,984.80
2018-04-17T04:58:16.670Z,984.80
2018-04-17T04:59:16.581Z,984.80
2018-04-17T05:00:16.502Z,984.86
2018-04-17T05:01:16.425Z,984.84
2018-04-17T05:02:16.347Z,984.86
2018-04-17T05:03:16.264Z,984.89
2018-04-17T05:04:16.188Z,984.89
2018-04-17T05:05:16.109Z,984.92
2018-04-17T05:06:16.029Z,984.92
2018-04-17T05:07:15.953Z,984.95
2018-04-17T05:08:15.871Z,984.98
2018-04-17T05:09:15.795Z,984.96
2018-04-17T05:10:15.715Z,984.99
2018-04-17T05:11:15.636Z,985.06
2018-04-17T05:12:15.556Z,985.09
2018-04-17T05:13:15.493Z,985.09
2018-04-17T05:14:15.417Z,985.17
2018-04-17T05:15:15.340Z,985.22
2018-04-17T05:16:15.242Z,985.20
2018-04-17T05:17:15.163Z,985.23
2018-04-17T05:18:15.083Z,985.24
2018-04-17T05:19:15.007Z,985.28
2018-04-17T05:20:14.936Z,985.26
2018-04-17T05:21:14.848Z,985.29
2018-04-17T05:22:14.768Z,985.34
2018-04-17T05:23:14.692Z,985.35
2018-04-17T05:24:14.618Z,985.38
2018-04-17T05:25:15.228Z,985.38
2018-04-17T05:26:14.470Z,985.44
2018-04-17T05:27:14.379Z,985.41
2018-04-17T05:28:14.298Z,985.46
2018-04-17T05:29:14.728Z,985.45
2018-04-17T05:30:14.137Z,985.48
2018-04-17T05:31:14.059Z,985.51
2018-04-17T05:32:14.008Z,985.51
2018-04-17T05:33:13.905Z,985.55
2018-04-17T05:34:13.831Z,985.58
2018-04-17T05:35:13.742Z,985.59
2018-04-17T05:36:13.663Z,985.65
2018-04-17T05:37:13.584Z,985.66
2018-04-17T05:38:13.525Z,985.68
2018-04-17T05:39:13.430Z,985.68
2018-04-17T05:40:13.409Z,985.72
2018-04-17T05:41:13.269Z,985.72
2018-04-17T05:42:13.188Z,985.78
2018-04-17T05:43:13.114Z,985.76
2018-04-17T05:44:13.058Z,985.83
2018-04-17T05:45:12.964Z,985.83
2018-04-17T05:46:12.893Z,985.79
2018-04-17T05:47:12.784Z,985.78
2018-04-17T05:48:12.719Z,985.80
2018-04-17T05:49:12.626Z,985.80
2018-04-17T05:50:12.567Z,985.85
2018-04-17T05:51:12.484Z,985.85
2018-04-17T05:52:12.385Z,985.88
2018-04-17T05:53:12.311Z,985.88
2018-04-17T05:54:12.233Z,985.93
2018-04-17T05:55:12.154Z,985.95
2018-04-17T05:56:12.077Z,985.94
2018-04-17T05:57:12.016Z,985.96
2018-04-17T05:58:11.923Z,985.94
2018-04-17T05:59:11.843Z,985.97
2018-04-17T06:00:11.764Z,986.03
2018-04-17T06:01:11.683Z,985.98
2018-04-17T06:02:11.602Z,986.00
2018-04-17T06:03:11.540Z,986.01
2018-04-17T06:04:11.447Z,986.00
2018-04-17T06:05:11.388Z,985.99
2018-04-17T06:06:11.289Z,986.01
2018-04-17T06:07:11.255Z,986.01
2018-04-17T06:08:11.173Z,985.99
2018-04-17T06:09:11.051Z,986.01
2018-04-17T06:10:10.974Z,986.02
2018-04-17T06:11:10.900Z,985.98
2018-04-17T06:12:10.815Z,985.98
2018-04-17T06:13:10.738Z,986.02
2018-04-17T06:14:10.658Z,986.01
2018-04-17T06:15:10.644Z,986.01
2018-04-17T06:16:10.501Z,985.99
2018-04-17T06:17:10.430Z,985.96
2018-04-17T06:18:10.347Z,985.98
2018-04-17T06:19:10.267Z,985.95
2018-04-17T06:20:10.196Z,986.00
2018-04-17T06:21:10.135Z,986.04
2018-04-17T06:22:10.034Z,986.00
2018-04-17T06:23:09.962Z,986.06
2018-04-17T06:24:09.875Z,986.07
2018-04-17T06:25:09.799Z,986.05
2018-04-17T06:26:09.810Z,986.07
2018-04-17T06:27:09.642Z,986.08
2018-04-17T06:28:09.561Z,986.07
2018-04-17T06:29:09.489Z,986.15
2018-04-17T06:30:09.404Z,986.10
2018-04-17T06:31:09.327Z,986.16
2018-04-17T06:32:10.226Z,986.14
2018-04-17T06:33:09.181Z,986.12
2018-04-17T06:34:09.097Z,986.16
2018-04-17T06:35:09.028Z,986.11
2018-04-17T06:36:08.938Z,986.15
2018-04-17T06:37:08.859Z,986.17
2018-04-17T06:38:08.778Z,986.19
2018-04-17T06:39:08.705Z,986.19
2018-04-17T06:40:08.635Z,986.18
2018-04-17T06:41:08.543Z,986.21
2018-04-17T06:42:08.479Z,986.24
2018-04-17T06:43:08.387Z,986.23
2018-04-17T06:44:08.310Z,986.24
2018-04-17T06:45:08.230Z,986.25
2018-04-17T06:46:08.149Z,986.24
2018-04-17T06:47:08.073Z,986.24
2018-04-17T06:48:07.996Z,986.28
2018-04-17T06:49:07.978Z,986.30
2018-04-17T06:50:07.839Z,986.26
2018-04-17T06:51:07.760Z,986.29
2018-04-17T06:52:07.724Z,986.31
2018-04-17T06:53:07.604Z,986.32
2018-04-17T06:54:07.525Z,986.32
2018-04-17T06:55:07.453Z,986.34
2018-04-17T06:56:07.369Z,986.34
2018-04-17T06:57:07.298Z,986.34
2018-04-17T06:58:07.273Z,986.34
2018-04-17T06:59:07.134Z,986.35
2018-04-17T07:00:07.075Z,986.36
2018-04-17T07:01:06.978Z,986.37
2018-04-17T07:02:06.905Z,986.43
2018-04-17T07:03:06.843Z,986.44
2018-04-17T07:04:06.760Z,986.44
2018-04-17T07:05:06.671Z,986.47
2018-04-17T07:06:06.593Z,986.47
2018-04-17T07:07:06.511Z,986.50
2018-04-17T07:08:06.459Z,986.51
2018-04-17T07:09:06.376Z,986.56
2018-04-17T07:10:06.284Z,986.58
2018-04-17T07:11:06.205Z,986.59
2018-04-17T07:12:06.127Z,986.59
2018-04-17T07:13:06.049Z,986.62
2018-04-17T07:14:05.971Z,986.61
2018-04-17T07:15:05.900Z,986.63
2018-04-17T07:16:05.824Z,986.64
2018-04-17T07:17:05.738Z,986.59
2018-04-17T07:18:05.663Z,986.67
2018-04-17T07:19:05.582Z,986.64
2018-04-17T07:20:05.523Z,986.68
2018-04-17T07:21:05.440Z,986.70
2018-04-17T07:22:05.359Z,986.70
2018-04-17T07:23:05.276Z,986.68
2018-04-17T07:24:05.192Z,986.67
2018-04-17T07:25:05.169Z,986.60
2018-04-17T07:26:05.062Z,986.56
2018-04-17T07:27:04.960Z,986.61
2018-04-17T07:28:04.886Z,986.57
2018-04-17T07:29:04.803Z,986.61
2018-04-17T07:30:04.727Z,986.58
2018-04-17T07:31:04.653Z,986.62
2018-04-17T07:32:04.593Z,986.63
2018-04-17T07:33:04.495Z,986.63
2018-04-17T07:34:04.423Z,986.65
2018-04-17T07:35:04.341Z,986.70
2018-04-17T07:36:04.295Z,986.72
2018-04-17T07:37:04.202Z,986.78
2018-04-17T07:38:04.106Z,986.78
2018-04-17T07:39:04.031Z,986.85
2018-04-17T07:40:03.952Z,986.89
2018-04-17T07:41:03.878Z,986.91
2018-04-17T07:42:03.798Z,986.93
2018-04-17T07:43:03.745Z,986.95
2018-04-17T07:44:03.640Z,986.99
2018-04-17T07:45:03.577Z,987.01
2018-04-17T07:46:03.493Z,987.02
2018-04-17T07:47:03.458Z,987.03
2018-04-17T07:48:03.360Z,987.08
2018-04-17T07:49:03.261Z,987.08
2018-04-17T07:50:03.183Z,987.03
2018-04-17T07:51:03.111Z,987.03
2018-04-17T07:52:03.029Z,987.06
2018-04-17T07:53:02.976Z,987.08
2018-04-17T07:54:02.909Z,987.07
2018-04-17T07:55:02.801Z,987.08
2018-04-17T07:56:02.751Z,987.11
2018-04-17T07:57:02.640Z,987.13
2018-04-17T07:58:02.565Z,987.11
2018-04-17T07:59:02.491Z,987.10
2018-04-17T08:00:02.427Z,987.14
2018-04-17T08:01:02.333Z,987.14
2018-04-17T08:02:02.257Z,987.15
2018-04-17T08:03:02.182Z,987.12
2018-04-17T08:04:02.106Z,987.16
2018-04-17T08:05:02.046Z,987.16
2018-04-17T08:06:01.947Z,987.13
2018-04-17T08:07:01.874Z,987.19
2018-04-17T08:08:01.794Z,987.23
2018-04-17T08:09:01.719Z,987.29
2018-04-17T08:10:01.640Z,987.24
2018-04-17T08:11:01.568Z,987.31
2018-04-17T08:12:01.496Z,987.29
2018-04-17T08:13:01.413Z,987.31
2018-04-17T08:14:01.334Z,987.33
2018-04-17T08:15:01.257Z,987.37
2018-04-17T08:16:01.184Z,987.37
2018-04-17T08:17:01.106Z,987.37
2018-04-17T08:18:01.030Z,987.33
2018-04-17T08:19:00.956Z,987.38
2018-04-17T08:20:00.872Z,987.36
2018-04-17T08:21:00.797Z,987.36
2018-04-17T08:22:00.740Z,987.39
2018-04-17T08:23:00.654Z,987.44
2018-04-17T08:24:00.568Z,987.40
2018-04-17T08:25:00.491Z,987.47
2018-04-17T08:26:00.417Z,987.42
2018-04-17T08:27:00.337Z,987.39
2018-04-17T08:28:00.264Z,987.48
2018-04-17T08:29:00.185Z,987.51
2018-04-17T08:30:00.107Z,987.50
2018-04-17T08:31:00.035Z,987.46
2018-04-17T08:31:59.975Z,987.51
2018-04-17T08:32:59.885Z,987.52
2018-04-17T08:33:59.806Z,987.51
2018-04-17T08:34:59.726Z,987.55
2018-04-17T08:35:59.663Z,987.57
2018-04-17T08:36:59.603Z,987.59
2018-04-17T08:37:59.518Z,987.59
2018-04-17T08:38:59.424Z,987.63
2018-04-17T08:39:59.348Z,987.68
2018-04-17T08:40:59.271Z,987.68
2018-04-17T08:41:59.201Z,987.68
2018-04-17T08:42:59.132Z,987.66
2018-04-17T08:43:59.050Z,987.67
2018-04-17T08:44:58.974Z,987.67
2018-04-17T08:45:58.891Z,987.69
2018-04-17T08:46:58.820Z,987.71
2018-04-17T08:47:58.742Z,987.71
2018-04-17T08:48:58.730Z,987.72
2018-04-17T08:49:58.611Z,987.75
2018-04-17T08:50:58.515Z,987.74
2018-04-17T08:51:58.442Z,987.76
2018-04-17T08:52:58.407Z,987.74
2018-04-17T08:53:58.301Z,987.80
2018-04-17T08:54:58.214Z,987.80
2018-04-17T08:55:58.138Z,987.82
2018-04-17T08:56:58.068Z,987.83
2018-04-17T08:57:58.777Z,987.86
2018-04-17T08:58:57.934Z,987.88
2018-04-17T08:59:57.838Z,987.87
2018-04-17T09:00:57.780Z,987.90
2018-04-17T09:01:57.691Z,987.94
2018-04-17T09:02:57.621Z,987.91
2018-04-17T09:03:57.540Z,987.91
2018-04-17T09:04:57.461Z,987.96
2018-04-17T09:05:57.392Z,987.94
2018-04-17T09:06:57.313Z,987.95
2018-04-17T09:07:57.253Z,987.91
2018-04-17T09:08:57.165Z,987.90
2018-04-17T09:09:57.085Z,987.88
2018-04-17T09:10:57.013Z,987.87
2018-04-17T09:11:56.974Z,987.81
2018-04-17T09:12:56.869Z,987.84
2018-04-17T09:13:56.789Z,987.86
2018-04-17T09:14:56.708Z,987.85
2018-04-17T09:15:56.637Z,987.81
2018-04-17T09:16:56.558Z,987.83
2018-04-17T09:17:56.499Z,987.80
2018-04-17T09:18:56.408Z,987.82
2018-04-17T09:19:56.345Z,987.81
2018-04-17T09:20:56.260Z,987.86
2018-04-17T09:21:56.197Z,987.81
2018-04-17T09:22:56.111Z,987.87
2018-04-17T09:23:56.075Z,987.92
2018-04-17T09:24:55.957Z,987.90
2018-04-17T09:25:55.882Z,987.96
2018-04-17T09:26:55.805Z,987.95
2018-04-17T09:27:55.734Z,987.94
2018-04-17T09:28:55.651Z,987.94
2018-04-17T09:29:55.579Z,987.92
2018-04-17T09:30:55.504Z,987.96
2018-04-17T09:31:55.425Z,987.98
2018-04-17T09:32:55.362Z,987.97
2018-04-17T09:33:55.276Z,987.97
2018-04-17T09:34:55.205Z,987.97
2018-04-17T09:35:55.130Z,987.94
2018-04-17T09:36:55.050Z,987.93
2018-04-17T09:37:54.988Z,987.94
2018-04-17T09:38:54.921Z,987.92
2018-04-17T09:39:54.832Z,987.92
2018-04-17T09:40:54.750Z,987.92
2018-04-17T09:41:54.671Z,987.91
2018-04-17T09:42:54.633Z,987.90
2018-04-17T09:43:54.534Z,987.88
2018-04-17T09:44:54.471Z,987.88
2018-04-17T09:45:54.377Z,987.89
2018-04-17T09:46:54.318Z,987.87
2018-04-17T09:47:54.228Z,987.90
2018-04-17T09:48:54.154Z,987.85
2018-04-17T09:49:54.100Z,987.88
2018-04-17T09:50:53.998Z,987.83
2018-04-17T09:51:53.920Z,987.85
2018-04-17T09:52:53.848Z,987.85
2018-04-17T09:53:53.775Z,987.84
2018-04-17T09:54:53.697Z,987.80
2018-04-17T09:55:53.623Z,987.77
2018-04-17T09:56:53.551Z,987.79
2018-04-17T09:57:53.482Z,987.78
2018-04-17T09:58:53.396Z,987.77
2018-04-17T09:59:53.328Z,987.76
2018-04-17T10:00:53.248Z,987.76
2018-04-17T10:01:53.173Z,987.77
2018-04-17T10:02:53.110Z,987.79
2018-04-17T10:03:53.021Z,987.77
2018-04-17T10:04:52.958Z,987.78
2018-04-17T10:05:52.878Z,987.79
2018-04-17T10:06:52.814Z,987.78
2018-04-17T10:07:52.743Z,987.77
2018-04-17T10:08:52.740Z,987.72
2018-04-17T10:09:52.576Z,987.73
2018-04-17T10:10:52.501Z,987.73
2018-04-17T10:11:52.426Z,987.72
2018-04-17T10:12:52.351Z,987.71
2018-04-17T10:13:52.303Z,987.66
2018-04-17T10:14:52.202Z,987.68
2018-04-17T10:15:52.129Z,987.64
2018-04-17T10:16:52.051Z,987.62
2018-04-17T10:17:51.986Z,987.59
2018-04-17T10:18:51.903Z,987.57
2018-04-17T10:19:51.830Z,987.59
2018-04-17T10:20:51.761Z,987.56
2018-04-17T10:21:51.684Z,987.61
2018-04-17T10:22:51.632Z,987.58
2018-04-17T10:23:51.533Z,987.59
2018-04-17T10:24:51.464Z,987.59
2018-04-17T10:25:51.391Z,987.57
2018-04-17T10:26:51.312Z,987.59
2018-04-17T10:27:51.241Z,987.57
2018-04-17T10:28:51.169Z,987.55
2018-04-17T10:29:51.105Z,987.53
2018-04-17T10:30:51.045Z,987.52
2018-04-17T10:31:50.950Z,987.57
2018-04-17T10:32:50.875Z,987.57
2018-04-17T10:33:50.846Z,987.58
2018-04-17T10:34:50.723Z,987.56
2018-04-17T10:35:50.655Z,987.54
2018-04-17T10:36:50.591Z,987.54
2018-04-17T10:37:50.501Z,987.55
2018-04-17T10:38:50.433Z,987.55
2018-04-17T10:39:50.354Z,987.53
2018-04-17T10:40:50.286Z,987.53
2018-04-17T10:41:50.226Z,987.54
2018-04-17T10:42:50.141Z,987.57
2018-04-17T10:43:50.062Z,987.54
2018-04-17T10:44:49.990Z,987.51
2018-04-17T10:45:49.919Z,987.53
2018-04-17T10:46:49.845Z,987.52
2018-04-17T10:47:49.773Z,987.51
2018-04-17T10:48:49.698Z,987.52
2018-04-17T10:49:49.626Z,987.49
2018-04-17T10:50:49.564Z,987.49
2018-04-17T10:51:49.479Z,987.50
2018-04-17T10:52:49.405Z,987.50
2018-04-17T10:53:49.385Z,987.58
2018-04-17T10:54:49.261Z,987.58
2018-04-17T10:55:49.206Z,987.55
2018-04-17T10:56:49.115Z,987.52
2018-04-17T10:57:49.044Z,987.51
2018-04-17T10:58:48.971Z,987.52
2018-04-17T10:59:48.942Z,987.53
2018-04-17T11:00:48.828Z,987.53
2018-04-17T11:01:48.757Z,987.52
2018-04-17T11:02:48.749Z,987.54
2018-04-17T11:03:48.682Z,987.56
2018-04-17T11:04:48.639Z,987.56
2018-04-17T11:05:48.477Z,987.56
2018-04-17T11:06:48.390Z,987.58
2018-04-17T11:07:48.328Z,987.59
2018-04-17T11:08:48.244Z,987.58
2018-04-17T11:09:48.194Z,987.59
2018-04-17T11:10:48.108Z,987.58
2018-04-17T11:11:48.033Z,987.59
2018-04-17T11:12:47.957Z,987.60
2018-04-17T11:13:48.814Z,987.61
2018-04-17T11:14:47.813Z,987.58
2018-04-17T11:15:47.745Z,987.57
2018-04-17T11:16:47.673Z,987.60
2018-04-17T11:17:47.598Z,987.60
2018-04-17T11:18:47.540Z,987.60
2018-04-17T11:19:47.459Z,987.62
2018-04-17T11:20:47.386Z,987.60
2018-04-17T11:21:47.311Z,987.64
2018-04-17T11:22:47.240Z,987.60
2018-04-17T11:23:47.182Z,987.58
2018-04-17T11:24:47.096Z,987.61
2018-04-17T11:25:47.025Z,987.63
2018-04-17T11:26:46.952Z,987.54
2018-04-17T11:27:46.883Z,987.57
2018-04-17T11:28:46.812Z,987.54
2018-04-17T11:29:46.737Z,987.56
2018-04-17T11:30:46.666Z,987.58
2018-04-17T11:31:46.598Z,987.59
2018-04-17T11:32:46.525Z,987.54
2018-04-17T11:33:46.458Z,987.57
2018-04-17T11:34:46.399Z,987.57
2018-04-17T11:35:46.311Z,987.58
2018-04-17T11:36:46.239Z,987.58
2018-04-17T11:37:46.177Z,987.56
2018-04-17T11:38:46.098Z,987.56
2018-04-17T11:39:46.027Z,987.54
2018-04-17T11:40:45.960Z,987.56
2018-04-17T11:41:45.888Z,987.60
2018-04-17T11:42:45.817Z,987.60
2018-04-17T11:43:45.747Z,987.58
2018-04-17T11:44:45.678Z,987.60
2018-04-17T11:45:45.607Z,987.60
2018-04-17T11:46:45.532Z,987.58
2018-04-17T11:47:45.470Z,987.57
2018-04-17T11:48:45.409Z,987.61
2018-04-17T11:49:45.323Z,987.58
2018-04-17T11:50:45.266Z,987.61
2018-04-17T11:51:45.183Z,987.57
2018-04-17T11:52:45.108Z,987.61
2018-04-17T11:53:45.037Z,987.62
2018-04-17T11:54:44.971Z,987.59
2018-04-17T11:55:44.918Z,987.60
2018-04-17T11:56:44.830Z,987.60
2018-04-17T11:57:44.758Z,987.56
2018-04-17T11:58:45.322Z,987.57
2018-04-17T11:59:44.623Z,987.57
2018-04-17T12:00:44.552Z,987.56
2018-04-17T12:01:44.480Z,987.56
2018-04-17T12:02:44.413Z,987.55
2018-04-17T12:03:44.348Z,987.59
2018-04-17T12:04:44.275Z,987.58
2018-04-17T12:05:44.208Z,987.57
2018-04-17T12:06:44.132Z,987.59
2018-04-17T12:07:44.069Z,987.65
2018-04-17T12:08:44.113Z,987.71
2018-04-17T12:09:43.930Z,987.65
2018-04-17T12:10:43.863Z,987.67
2018-04-17T12:11:43.794Z,987.68
2018-04-17T12:12:43.732Z,987.72
2018-04-17T12:13:43.664Z,987.67
2018-04-17T12:14:43.616Z,987.69
2018-04-17T12:15:43.537Z,987.70
2018-04-17T12:16:43.471Z,987.75
2018-04-17T12:17:43.419Z,987.70
2018-04-17T12:18:43.346Z,987.71
2018-04-17T12:19:43.286Z,987.70
2018-04-17T12:20:43.220Z,987.66
2018-04-17T12:21:43.177Z,987.72
2018-04-17T12:22:43.100Z,987.73
2018-04-17T12:23:43.037Z,987.72
2018-04-17T12:24:42.990Z,987.73
2018-04-17T12:25:42.953Z,987.70
2018-04-17T12:26:42.859Z,987.71
2018-04-17T12:27:42.803Z,987.72